Startpagina
METAR-TAF:

METAR-TAF

Vliegvelden :

Schwäbisch Hall, Duitsland

breedte: 49-07-06N, lengte: 9-47-02E, hoogte: 398 m

Actueel weer

Dit bericht is 31 minuten geleden gemaakt, om 20:20 UTC
Wind 29 kt uit het westen met uitschieters tot 45 kt
Temperatuur 12°C
Vochtigheid 76%
Druk 1017 hPa
Zicht 10 km of meer

METAR: EDTY 232020Z AUTO 26029G45KT 9999 // BKN025/// OVC035/// 12/08 Q1017

Tijdstip: 21:51 (20:51 UTC)

Verwachting

Dit bericht is 3 uur en het 51 minuten geleden gemaakt, om 17:00 UTC
Verwachting geldig van 23 om 18 UTC tot 24 om 03 UTC
Wind 20 kt uit het westen met uitschieters tot 35 kt
Zicht 10 km of meer
Geheel bewolkt op 3000 ft
Tijdelijke
van 23 om 20 UTC tot 24 om 03 UTC
Zicht: 3500 m
Gebroken wolken op 800 ft
regen
Wijzigt naar
van 23 om 23 UTC tot 24 om 02 UTC
Wind 8 kt uit het noorden

TAF: EDTY 231700Z 2318/2403 26020G35KT 9999 OVC030 TEMPO 2320/2403 3500 RA BKN008 BECMG 2323/2402 35008KT

Waarnemingen en weersverwachtingen van meer dan 4000 vliegvelden (METAR en TAF).

De beschikbare stations zijn de gele en rode punten op de kaart.

Ga met uw muis naar het station om de naam te zien.

Klik dan om waarnemingen en weersverwachtingen te zien.

kaart wijzigen: klik op de groene knoppen met een zwart kruis om in te zoomen, op de groene knop met een streepje om uit te zoomen of op de groene pijlen voor aangrenzende kaarten.


METAR-TAF: